sensor_id;sensor_type;location;lat;lon;timestamp;P1;durP1;ratioP1;P2;durP2;ratioP2
32427;SDS011;18882;50.952;4.366;2022-10-16T00:01:07;1.10;;;0.50;;
32427;SDS011;18882;50.952;4.366;2022-10-16T00:03:39;0.38;;;0.38;;
32427;SDS011;18882;50.952;4.366;2022-10-16T00:06:06;0.68;;;0.47;;
32427;SDS011;18882;50.952;4.366;2022-10-16T00:08:32;1.35;;;0.43;;
32427;SDS011;18882;50.952;4.366;2022-10-16T00:10:59;1.75;;;0.45;;
32427;SDS011;18882;50.952;4.366;2022-10-16T00:13:28;0.40;;;0.40;;
32427;SDS011;18882;50.952;4.366;2022-10-16T00:15:55;0.77;;;0.50;;
32427;SDS011;18882;50.952;4.366;2022-10-16T00:18:21;0.47;;;0.40;;
32427;SDS011;18882;50.952;4.366;2022-10-16T00:20:47;1.33;;;0.43;;
32427;SDS011;18882;50.952;4.366;2022-10-16T00:23:13;0.50;;;0.40;;
32427;SDS011;18882;50.952;4.366;2022-10-16T00:25:38;1.55;;;0.73;;
32427;SDS011;18882;50.952;4.366;2022-10-16T00:28:04;0.73;;;0.50;;
32427;SDS011;18882;50.952;4.366;2022-10-16T00:30:29;2.30;;;0.38;;
32427;SDS011;18882;50.952;4.366;2022-10-16T00:32:55;0.75;;;0.40;;
32427;SDS011;18882;50.952;4.366;2022-10-16T00:35:21;0.85;;;0.40;;
32427;SDS011;18882;50.952;4.366;2022-10-16T00:37:47;2.20;;;0.47;;
32427;SDS011;18882;50.952;4.366;2022-10-16T00:40:13;1.42;;;0.70;;
32427;SDS011;18882;50.952;4.366;2022-10-16T00:42:38;0.50;;;0.50;;
32427;SDS011;18882;50.952;4.366;2022-10-16T00:45:05;4.63;;;0.60;;
32427;SDS011;18882;50.952;4.366;2022-10-16T00:47:36;1.15;;;0.50;;
32427;SDS011;18882;50.952;4.366;2022-10-16T00:50:39;0.93;;;0.47;;
32427;SDS011;18882;50.952;4.366;2022-10-16T00:52:59;2.95;;;1.10;;
32427;SDS011;18882;50.952;4.366;2022-10-16T00:55:27;2.58;;;0.50;;
32427;SDS011;18882;50.952;4.366;2022-10-16T00:57:55;1.05;;;0.47;;
32427;SDS011;18882;50.952;4.366;2022-10-16T01:00:23;2.60;;;1.08;;
32427;SDS011;18882;50.952;4.366;2022-10-16T01:02:52;1.35;;;0.63;;
32427;SDS011;18882;50.952;4.366;2022-10-16T01:05:42;0.88;;;0.50;;
32427;SDS011;18882;50.952;4.366;2022-10-16T01:08:18;1.35;;;0.57;;
32427;SDS011;18882;50.952;4.366;2022-10-16T01:10:57;1.10;;;0.60;;
32427;SDS011;18882;50.952;4.366;2022-10-16T01:13:33;0.95;;;0.73;;
32427;SDS011;18882;50.952;4.366;2022-10-16T01:18:39;1.83;;;0.77;;
32427;SDS011;18882;50.952;4.366;2022-10-16T01:21:27;0.57;;;0.45;;
32427;SDS011;18882;50.952;4.366;2022-10-16T01:27:09;1.98;;;0.52;;
32427;SDS011;18882;50.952;4.366;2022-10-16T01:29:54;1.20;;;0.70;;
32427;SDS011;18882;50.952;4.366;2022-10-16T01:35:11;2.60;;;0.60;;
32427;SDS011;18882;50.952;4.366;2022-10-16T01:40:32;6.50;;;0.85;;
32427;SDS011;18882;50.952;4.366;2022-10-16T01:43:12;1.17;;;0.80;;
32427;SDS011;18882;50.952;4.366;2022-10-16T01:45:45;0.63;;;0.63;;
32427;SDS011;18882;50.952;4.366;2022-10-16T01:48:16;2.60;;;0.63;;
32427;SDS011;18882;50.952;4.366;2022-10-16T01:50:44;1.00;;;0.70;;
32427;SDS011;18882;50.952;4.366;2022-10-16T01:53:33;5.45;;;0.73;;
32427;SDS011;18882;50.952;4.366;2022-10-16T01:55:59;2.42;;;0.52;;
32427;SDS011;18882;50.952;4.366;2022-10-16T01:58:27;5.00;;;0.82;;
32427;SDS011;18882;50.952;4.366;2022-10-16T02:00:59;1.27;;;1.08;;
32427;SDS011;18882;50.952;4.366;2022-10-16T02:03:26;2.17;;;0.70;;
32427;SDS011;18882;50.952;4.366;2022-10-16T02:05:53;1.00;;;0.80;;
32427;SDS011;18882;50.952;4.366;2022-10-16T02:08:21;3.60;;;0.95;;
32427;SDS011;18882;50.952;4.366;2022-10-16T02:10:49;0.90;;;0.70;;
32427;SDS011;18882;50.952;4.366;2022-10-16T02:13:22;0.68;;;0.63;;
32427;SDS011;18882;50.952;4.366;2022-10-16T02:15:52;2.92;;;0.77;;
32427;SDS011;18882;50.952;4.366;2022-10-16T02:18:18;1.13;;;0.80;;
32427;SDS011;18882;50.952;4.366;2022-10-16T02:20:52;1.63;;;1.10;;
32427;SDS011;18882;50.952;4.366;2022-10-16T02:23:26;0.95;;;0.90;;
32427;SDS011;18882;50.952;4.366;2022-10-16T02:26:07;1.33;;;1.00;;
32427;SDS011;18882;50.952;4.366;2022-10-16T02:28:39;1.48;;;0.73;;
32427;SDS011;18882;50.952;4.366;2022-10-16T02:31:10;2.45;;;0.90;;
32427;SDS011;18882;50.952;4.366;2022-10-16T02:33:39;1.35;;;0.80;;
32427;SDS011;18882;50.952;4.366;2022-10-16T02:36:07;2.15;;;0.70;;
32427;SDS011;18882;50.952;4.366;2022-10-16T02:38:33;2.50;;;1.08;;
32427;SDS011;18882;50.952;4.366;2022-10-16T02:41:01;2.08;;;1.08;;
32427;SDS011;18882;50.952;4.366;2022-10-16T02:43:28;1.02;;;0.65;;
32427;SDS011;18882;50.952;4.366;2022-10-16T02:45:53;1.60;;;0.65;;
32427;SDS011;18882;50.952;4.366;2022-10-16T02:48:19;1.75;;;0.80;;
32427;SDS011;18882;50.952;4.366;2022-10-16T02:50:44;4.82;;;0.68;;
32427;SDS011;18882;50.952;4.366;2022-10-16T02:53:10;1.52;;;0.80;;
32427;SDS011;18882;50.952;4.366;2022-10-16T02:55:36;1.08;;;0.65;;
32427;SDS011;18882;50.952;4.366;2022-10-16T02:58:02;1.75;;;0.95;;
32427;SDS011;18882;50.952;4.366;2022-10-16T03:00:28;4.45;;;1.10;;
32427;SDS011;18882;50.952;4.366;2022-10-16T03:02:53;4.25;;;1.10;;
32427;SDS011;18882;50.952;4.366;2022-10-16T03:05:19;3.22;;;1.15;;
32427;SDS011;18882;50.952;4.366;2022-10-16T03:07:45;1.40;;;0.88;;
32427;SDS011;18882;50.952;4.366;2022-10-16T03:10:11;1.48;;;1.10;;
32427;SDS011;18882;50.952;4.366;2022-10-16T03:12:36;5.88;;;0.90;;
32427;SDS011;18882;50.952;4.366;2022-10-16T03:15:02;1.95;;;1.17;;
32427;SDS011;18882;50.952;4.366;2022-10-16T03:17:28;4.68;;;0.70;;
32427;SDS011;18882;50.952;4.366;2022-10-16T03:19:54;1.25;;;0.77;;
32427;SDS011;18882;50.952;4.366;2022-10-16T03:22:19;3.80;;;1.13;;
32427;SDS011;18882;50.952;4.366;2022-10-16T03:24:45;1.55;;;1.00;;
32427;SDS011;18882;50.952;4.366;2022-10-16T03:27:11;1.27;;;1.02;;
32427;SDS011;18882;50.952;4.366;2022-10-16T03:29:36;3.70;;;1.20;;
32427;SDS011;18882;50.952;4.366;2022-10-16T03:32:02;5.13;;;0.80;;
32427;SDS011;18882;50.952;4.366;2022-10-16T03:34:28;3.65;;;1.40;;
32427;SDS011;18882;50.952;4.366;2022-10-16T03:36:54;4.28;;;0.98;;
32427;SDS011;18882;50.952;4.366;2022-10-16T03:39:20;1.15;;;0.75;;
32427;SDS011;18882;50.952;4.366;2022-10-16T03:41:46;2.45;;;0.82;;
32427;SDS011;18882;50.952;4.366;2022-10-16T03:44:11;0.77;;;0.77;;
32427;SDS011;18882;50.952;4.366;2022-10-16T03:46:37;1.00;;;0.90;;
32427;SDS011;18882;50.952;4.366;2022-10-16T03:49:03;3.35;;;1.00;;
32427;SDS011;18882;50.952;4.366;2022-10-16T03:51:28;2.28;;;1.30;;
32427;SDS011;18882;50.952;4.366;2022-10-16T03:53:54;1.45;;;0.70;;
32427;SDS011;18882;50.952;4.366;2022-10-16T03:56:20;1.85;;;1.20;;
32427;SDS011;18882;50.952;4.366;2022-10-16T03:58:45;4.95;;;0.90;;
32427;SDS011;18882;50.952;4.366;2022-10-16T04:01:11;3.03;;;0.93;;
32427;SDS011;18882;50.952;4.366;2022-10-16T04:03:37;2.30;;;0.90;;
32427;SDS011;18882;50.952;4.366;2022-10-16T04:06:02;3.30;;;1.00;;
32427;SDS011;18882;50.952;4.366;2022-10-16T04:08:28;2.78;;;0.65;;
32427;SDS011;18882;50.952;4.366;2022-10-16T04:10:54;2.38;;;1.30;;
32427;SDS011;18882;50.952;4.366;2022-10-16T04:13:19;13.68;;;1.40;;
32427;SDS011;18882;50.952;4.366;2022-10-16T04:15:45;2.00;;;0.95;;
32427;SDS011;18882;50.952;4.366;2022-10-16T04:18:11;2.65;;;1.20;;
32427;SDS011;18882;50.952;4.366;2022-10-16T04:20:36;1.67;;;1.10;;
32427;SDS011;18882;50.952;4.366;2022-10-16T04:23:02;3.47;;;1.40;;
32427;SDS011;18882;50.952;4.366;2022-10-16T04:25:28;2.42;;;1.40;;
32427;SDS011;18882;50.952;4.366;2022-10-16T04:27:54;2.22;;;1.27;;
32427;SDS011;18882;50.952;4.366;2022-10-16T04:30:20;2.22;;;1.23;;
32427;SDS011;18882;50.952;4.366;2022-10-16T04:32:52;2.20;;;1.10;;
32427;SDS011;18882;50.952;4.366;2022-10-16T04:35:18;2.22;;;1.17;;
32427;SDS011;18882;50.952;4.366;2022-10-16T04:37:45;6.05;;;1.52;;
32427;SDS011;18882;50.952;4.366;2022-10-16T04:40:11;2.78;;;0.93;;
32427;SDS011;18882;50.952;4.366;2022-10-16T04:42:37;6.57;;;1.38;;
32427;SDS011;18882;50.952;4.366;2022-10-16T04:45:03;2.60;;;0.90;;
32427;SDS011;18882;50.952;4.366;2022-10-16T04:47:30;1.48;;;1.02;;
32427;SDS011;18882;50.952;4.366;2022-10-16T04:49:56;3.25;;;1.20;;
32427;SDS011;18882;50.952;4.366;2022-10-16T04:52:22;1.73;;;1.00;;
32427;SDS011;18882;50.952;4.366;2022-10-16T04:54:49;4.75;;;1.10;;
32427;SDS011;18882;50.952;4.366;2022-10-16T04:57:15;2.45;;;0.73;;
32427;SDS011;18882;50.952;4.366;2022-10-16T04:59:41;3.55;;;1.20;;
32427;SDS011;18882;50.952;4.366;2022-10-16T05:02:07;5.00;;;1.15;;
32427;SDS011;18882;50.952;4.366;2022-10-16T05:04:32;1.17;;;1.08;;
32427;SDS011;18882;50.952;4.366;2022-10-16T05:06:58;6.43;;;1.10;;
32427;SDS011;18882;50.952;4.366;2022-10-16T05:09:23;4.45;;;1.38;;
32427;SDS011;18882;50.952;4.366;2022-10-16T05:11:49;3.50;;;0.80;;
32427;SDS011;18882;50.952;4.366;2022-10-16T05:14:15;4.07;;;1.02;;
32427;SDS011;18882;50.952;4.366;2022-10-16T05:16:41;1.38;;;1.13;;
32427;SDS011;18882;50.952;4.366;2022-10-16T05:19:06;6.40;;;1.10;;
32427;SDS011;18882;50.952;4.366;2022-10-16T05:21:32;1.42;;;1.25;;
32427;SDS011;18882;50.952;4.366;2022-10-16T05:23:58;4.50;;;1.33;;
32427;SDS011;18882;50.952;4.366;2022-10-16T05:26:23;2.15;;;1.23;;
32427;SDS011;18882;50.952;4.366;2022-10-16T05:28:49;2.05;;;1.27;;
32427;SDS011;18882;50.952;4.366;2022-10-16T05:31:15;4.65;;;1.00;;
32427;SDS011;18882;50.952;4.366;2022-10-16T05:33:40;1.58;;;0.93;;
32427;SDS011;18882;50.952;4.366;2022-10-16T05:36:07;1.52;;;1.05;;
32427;SDS011;18882;50.952;4.366;2022-10-16T05:38:34;7.18;;;1.73;;
32427;SDS011;18882;50.952;4.366;2022-10-16T05:41:00;4.82;;;1.20;;
32427;SDS011;18882;50.952;4.366;2022-10-16T05:43:29;3.38;;;1.40;;
32427;SDS011;18882;50.952;4.366;2022-10-16T05:45:56;2.38;;;1.50;;
32427;SDS011;18882;50.952;4.366;2022-10-16T05:48:24;2.22;;;1.15;;
32427;SDS011;18882;50.952;4.366;2022-10-16T05:51:03;1.63;;;1.25;;
32427;SDS011;18882;50.952;4.366;2022-10-16T05:53:32;3.65;;;1.40;;
32427;SDS011;18882;50.952;4.366;2022-10-16T05:55:59;4.38;;;1.33;;
32427;SDS011;18882;50.952;4.366;2022-10-16T05:58:28;4.45;;;1.65;;
32427;SDS011;18882;50.952;4.366;2022-10-16T06:00:56;1.52;;;1.40;;
32427;SDS011;18882;50.952;4.366;2022-10-16T06:03:32;2.63;;;1.63;;
32427;SDS011;18882;50.952;4.366;2022-10-16T06:05:58;2.78;;;1.27;;
32427;SDS011;18882;50.952;4.366;2022-10-16T06:08:24;2.80;;;1.40;;
32427;SDS011;18882;50.952;4.366;2022-10-16T06:10:59;2.85;;;1.85;;
32427;SDS011;18882;50.952;4.366;2022-10-16T06:13:29;3.58;;;1.70;;
32427;SDS011;18882;50.952;4.366;2022-10-16T06:15:56;3.90;;;1.33;;
32427;SDS011;18882;50.952;4.366;2022-10-16T06:18:23;2.85;;;1.42;;
32427;SDS011;18882;50.952;4.366;2022-10-16T06:20:49;5.85;;;1.67;;
32427;SDS011;18882;50.952;4.366;2022-10-16T06:23:15;3.25;;;1.50;;
32427;SDS011;18882;50.952;4.366;2022-10-16T06:25:40;4.38;;;1.98;;
32427;SDS011;18882;50.952;4.366;2022-10-16T06:28:07;1.98;;;1.60;;
32427;SDS011;18882;50.952;4.366;2022-10-16T06:30:33;2.30;;;1.73;;
32427;SDS011;18882;50.952;4.366;2022-10-16T06:32:58;5.28;;;1.45;;
32427;SDS011;18882;50.952;4.366;2022-10-16T06:35:25;5.50;;;1.20;;
32427;SDS011;18882;50.952;4.366;2022-10-16T06:37:52;4.10;;;1.80;;
32427;SDS011;18882;50.952;4.366;2022-10-16T06:40:18;2.33;;;1.23;;
32427;SDS011;18882;50.952;4.366;2022-10-16T06:42:43;2.28;;;1.30;;
32427;SDS011;18882;50.952;4.366;2022-10-16T06:45:10;2.15;;;1.35;;
32427;SDS011;18882;50.952;4.366;2022-10-16T06:47:36;5.70;;;1.23;;
32427;SDS011;18882;50.952;4.366;2022-10-16T06:50:02;2.47;;;1.42;;
32427;SDS011;18882;50.952;4.366;2022-10-16T06:52:28;1.38;;;1.27;;
32427;SDS011;18882;50.952;4.366;2022-10-16T06:54:54;4.38;;;1.50;;
32427;SDS011;18882;50.952;4.366;2022-10-16T06:57:20;3.83;;;1.48;;
32427;SDS011;18882;50.952;4.366;2022-10-16T06:59:45;2.95;;;1.40;;
32427;SDS011;18882;50.952;4.366;2022-10-16T07:02:12;1.95;;;1.13;;
32427;SDS011;18882;50.952;4.366;2022-10-16T07:04:38;2.05;;;1.20;;
32427;SDS011;18882;50.952;4.366;2022-10-16T07:07:03;1.65;;;1.42;;
32427;SDS011;18882;50.952;4.366;2022-10-16T07:09:29;1.98;;;1.63;;
32427;SDS011;18882;50.952;4.366;2022-10-16T07:11:55;1.85;;;1.38;;
32427;SDS011;18882;50.952;4.366;2022-10-16T07:14:21;2.28;;;1.10;;
32427;SDS011;18882;50.952;4.366;2022-10-16T07:16:47;5.13;;;1.75;;
32427;SDS011;18882;50.952;4.366;2022-10-16T07:19:13;2.72;;;1.55;;
32427;SDS011;18882;50.952;4.366;2022-10-16T07:21:40;8.43;;;1.38;;
32427;SDS011;18882;50.952;4.366;2022-10-16T07:24:06;5.57;;;1.77;;
32427;SDS011;18882;50.952;4.366;2022-10-16T07:26:37;3.78;;;1.65;;
32427;SDS011;18882;50.952;4.366;2022-10-16T07:29:04;5.85;;;1.50;;
32427;SDS011;18882;50.952;4.366;2022-10-16T07:31:31;3.13;;;1.67;;
32427;SDS011;18882;50.952;4.366;2022-10-16T07:33:57;6.65;;;1.75;;
32427;SDS011;18882;50.952;4.366;2022-10-16T07:36:24;9.52;;;1.65;;
32427;SDS011;18882;50.952;4.366;2022-10-16T07:38:50;3.97;;;1.35;;
32427;SDS011;18882;50.952;4.366;2022-10-16T07:41:17;3.33;;;1.55;;
32427;SDS011;18882;50.952;4.366;2022-10-16T07:43:47;3.63;;;1.40;;
32427;SDS011;18882;50.952;4.366;2022-10-16T07:46:17;4.00;;;1.50;;
32427;SDS011;18882;50.952;4.366;2022-10-16T07:48:44;5.72;;;1.63;;
32427;SDS011;18882;50.952;4.366;2022-10-16T07:51:12;3.42;;;1.48;;
32427;SDS011;18882;50.952;4.366;2022-10-16T07:53:43;4.25;;;1.35;;
32427;SDS011;18882;50.952;4.366;2022-10-16T07:56:09;1.55;;;1.25;;
32427;SDS011;18882;50.952;4.366;2022-10-16T07:58:35;3.92;;;1.50;;
32427;SDS011;18882;50.952;4.366;2022-10-16T08:01:05;3.08;;;1.20;;
32427;SDS011;18882;50.952;4.366;2022-10-16T08:03:32;2.75;;;1.48;;
32427;SDS011;18882;50.952;4.366;2022-10-16T08:05:58;1.65;;;1.40;;
32427;SDS011;18882;50.952;4.366;2022-10-16T08:08:25;1.73;;;1.02;;
32427;SDS011;18882;50.952;4.366;2022-10-16T08:10:51;2.20;;;1.55;;
32427;SDS011;18882;50.952;4.366;2022-10-16T08:13:17;3.28;;;1.40;;
32427;SDS011;18882;50.952;4.366;2022-10-16T08:15:43;3.08;;;1.08;;
32427;SDS011;18882;50.952;4.366;2022-10-16T08:18:09;1.65;;;0.98;;
32427;SDS011;18882;50.952;4.366;2022-10-16T08:20:36;4.97;;;0.98;;
32427;SDS011;18882;50.952;4.366;2022-10-16T08:23:02;2.20;;;1.10;;
32427;SDS011;18882;50.952;4.366;2022-10-16T08:25:28;3.08;;;1.02;;
32427;SDS011;18882;50.952;4.366;2022-10-16T08:27:55;3.05;;;1.02;;
32427;SDS011;18882;50.952;4.366;2022-10-16T08:30:21;4.05;;;1.20;;
32427;SDS011;18882;50.952;4.366;2022-10-16T08:32:48;2.42;;;1.05;;
32427;SDS011;18882;50.952;4.366;2022-10-16T08:35:13;1.38;;;1.20;;
32427;SDS011;18882;50.952;4.366;2022-10-16T08:37:39;0.77;;;0.60;;
32427;SDS011;18882;50.952;4.366;2022-10-16T08:40:06;1.20;;;0.93;;
32427;SDS011;18882;50.952;4.366;2022-10-16T08:45:31;8.23;;;1.08;;
32427;SDS011;18882;50.952;4.366;2022-10-16T08:51:02;1.42;;;0.80;;
32427;SDS011;18882;50.952;4.366;2022-10-16T08:53:43;2.13;;;1.58;;
32427;SDS011;18882;50.952;4.366;2022-10-16T08:56:13;3.77;;;1.20;;
32427;SDS011;18882;50.952;4.366;2022-10-16T08:58:39;2.80;;;1.17;;
32427;SDS011;18882;50.952;4.366;2022-10-16T09:01:09;2.15;;;0.73;;
32427;SDS011;18882;50.952;4.366;2022-10-16T09:09:42;5.00;;;0.80;;
32427;SDS011;18882;50.952;4.366;2022-10-16T09:17:49;2.10;;;0.65;;
32427;SDS011;18882;50.952;4.366;2022-10-16T09:20:28;1.90;;;0.63;;
32427;SDS011;18882;50.952;4.366;2022-10-16T09:23:19;3.42;;;0.82;;
32427;SDS011;18882;50.952;4.366;2022-10-16T09:26:02;4.25;;;1.10;;
32427;SDS011;18882;50.952;4.366;2022-10-16T09:28:28;3.75;;;0.73;;
32427;SDS011;18882;50.952;4.366;2022-10-16T09:30:54;4.68;;;0.85;;
32427;SDS011;18882;50.952;4.366;2022-10-16T09:33:28;1.90;;;0.70;;
32427;SDS011;18882;50.952;4.366;2022-10-16T09:35:58;3.63;;;0.80;;
32427;SDS011;18882;50.952;4.366;2022-10-16T09:38:34;2.95;;;0.68;;
32427;SDS011;18882;50.952;4.366;2022-10-16T09:41:22;6.75;;;1.27;;
32427;SDS011;18882;50.952;4.366;2022-10-16T09:43:49;1.95;;;0.60;;
32427;SDS011;18882;50.952;4.366;2022-10-16T09:46:30;2.28;;;1.00;;
32427;SDS011;18882;50.952;4.366;2022-10-16T09:49:01;3.30;;;1.15;;
32427;SDS011;18882;50.952;4.366;2022-10-16T09:51:33;2.60;;;0.50;;
32427;SDS011;18882;50.952;4.366;2022-10-16T09:54:14;4.28;;;0.85;;
32427;SDS011;18882;50.952;4.366;2022-10-16T09:56:44;3.30;;;0.57;;
32427;SDS011;18882;50.952;4.366;2022-10-16T10:01:42;2.42;;;1.02;;
32427;SDS011;18882;50.952;4.366;2022-10-16T10:04:20;3.75;;;0.93;;
32427;SDS011;18882;50.952;4.366;2022-10-16T10:06:51;0.93;;;0.80;;
32427;SDS011;18882;50.952;4.366;2022-10-16T10:09:23;4.15;;;0.73;;
32427;SDS011;18882;50.952;4.366;2022-10-16T10:12:05;2.80;;;0.77;;
32427;SDS011;18882;50.952;4.366;2022-10-16T10:14:46;2.47;;;0.40;;
32427;SDS011;18882;50.952;4.366;2022-10-16T10:17:20;3.10;;;0.60;;
32427;SDS011;18882;50.952;4.366;2022-10-16T10:19:54;5.90;;;0.73;;
32427;SDS011;18882;50.952;4.366;2022-10-16T10:24:55;5.20;;;1.10;;
32427;SDS011;18882;50.952;4.366;2022-10-16T10:32:54;2.22;;;0.65;;
32427;SDS011;18882;50.952;4.366;2022-10-16T10:52:06;1.38;;;0.30;;
32427;SDS011;18882;50.952;4.366;2022-10-16T10:54:41;2.50;;;0.55;;
32427;SDS011;18882;50.952;4.366;2022-10-16T10:57:28;9.25;;;1.33;;
32427;SDS011;18882;50.952;4.366;2022-10-16T11:05:40;1.80;;;0.80;;
32427;SDS011;18882;50.952;4.366;2022-10-16T11:08:19;3.65;;;0.50;;
32427;SDS011;18882;50.952;4.366;2022-10-16T11:16:26;3.13;;;0.57;;
32427;SDS011;18882;50.952;4.366;2022-10-16T11:18:56;1.95;;;0.60;;
32427;SDS011;18882;50.952;4.366;2022-10-16T11:21:39;0.47;;;0.25;;
32427;SDS011;18882;50.952;4.366;2022-10-16T11:24:23;1.75;;;0.25;;
32427;SDS011;18882;50.952;4.366;2022-10-16T11:27:03;0.82;;;0.47;;
32427;SDS011;18882;50.952;4.366;2022-10-16T11:29:33;2.45;;;0.30;;
32427;SDS011;18882;50.952;4.366;2022-10-16T11:32:07;1.75;;;0.60;;
32427;SDS011;18882;50.952;4.366;2022-10-16T11:34:44;1.52;;;0.50;;
32427;SDS011;18882;50.952;4.366;2022-10-16T11:37:17;1.48;;;0.47;;
32427;SDS011;18882;50.952;4.366;2022-10-16T11:39:45;4.28;;;0.75;;
32427;SDS011;18882;50.952;4.366;2022-10-16T11:42:33;3.20;;;0.70;;
32427;SDS011;18882;50.952;4.366;2022-10-16T11:50:53;1.52;;;0.40;;
32427;SDS011;18882;50.952;4.366;2022-10-16T11:53:39;4.82;;;0.50;;
32427;SDS011;18882;50.952;4.366;2022-10-16T11:56:11;0.85;;;0.28;;
32427;SDS011;18882;50.952;4.366;2022-10-16T11:58:45;2.97;;;0.80;;
32427;SDS011;18882;50.952;4.366;2022-10-16T12:01:22;3.30;;;0.93;;
32427;SDS011;18882;50.952;4.366;2022-10-16T12:09:32;2.60;;;0.75;;
32427;SDS011;18882;50.952;4.366;2022-10-16T12:12:02;2.03;;;0.60;;
32427;SDS011;18882;50.952;4.366;2022-10-16T12:14:37;5.63;;;0.90;;
32427;SDS011;18882;50.952;4.366;2022-10-16T12:17:26;4.07;;;0.70;;
32427;SDS011;18882;50.952;4.366;2022-10-16T12:28:22;1.55;;;0.47;;
32427;SDS011;18882;50.952;4.366;2022-10-16T12:30:54;4.20;;;0.52;;
32427;SDS011;18882;50.952;4.366;2022-10-16T12:33:24;1.92;;;0.57;;
32427;SDS011;18882;50.952;4.366;2022-10-16T12:35:52;3.15;;;0.40;;
32427;SDS011;18882;50.952;4.366;2022-10-16T12:43:34;4.53;;;0.68;;
32427;SDS011;18882;50.952;4.366;2022-10-16T12:46:04;3.10;;;0.47;;
32427;SDS011;18882;50.952;4.366;2022-10-16T12:48:46;3.35;;;0.50;;
32427;SDS011;18882;50.952;4.366;2022-10-16T12:57:18;1.95;;;0.47;;
32427;SDS011;18882;50.952;4.366;2022-10-16T13:04:53;1.13;;;0.77;;
32427;SDS011;18882;50.952;4.366;2022-10-16T13:12:56;1.83;;;0.40;;
32427;SDS011;18882;50.952;4.366;2022-10-16T13:18:13;0.95;;;0.43;;
32427;SDS011;18882;50.952;4.366;2022-10-16T13:23:38;3.83;;;0.60;;
32427;SDS011;18882;50.952;4.366;2022-10-16T13:26:29;0.85;;;0.40;;
32427;SDS011;18882;50.952;4.366;2022-10-16T13:29:00;3.30;;;0.40;;
32427;SDS011;18882;50.952;4.366;2022-10-16T13:31:26;0.47;;;0.30;;
32427;SDS011;18882;50.952;4.366;2022-10-16T13:33:54;1.63;;;0.50;;
32427;SDS011;18882;50.952;4.366;2022-10-16T13:36:25;3.35;;;0.55;;
32427;SDS011;18882;50.952;4.366;2022-10-16T13:39:03;2.65;;;1.10;;
32427;SDS011;18882;50.952;4.366;2022-10-16T13:41:36;5.32;;;0.60;;
32427;SDS011;18882;50.952;4.366;2022-10-16T13:44:02;2.13;;;0.40;;
32427;SDS011;18882;50.952;4.366;2022-10-16T13:46:30;1.50;;;0.80;;
32427;SDS011;18882;50.952;4.366;2022-10-16T13:49:05;2.75;;;1.35;;
32427;SDS011;18882;50.952;4.366;2022-10-16T13:51:37;7.40;;;1.88;;
32427;SDS011;18882;50.952;4.366;2022-10-16T13:54:03;4.03;;;1.30;;
32427;SDS011;18882;50.952;4.366;2022-10-16T13:56:30;1.15;;;0.70;;
32427;SDS011;18882;50.952;4.366;2022-10-16T14:01:31;0.45;;;0.40;;
32427;SDS011;18882;50.952;4.366;2022-10-16T14:04:09;0.63;;;0.47;;
32427;SDS011;18882;50.952;4.366;2022-10-16T14:06:36;1.70;;;0.57;;
32427;SDS011;18882;50.952;4.366;2022-10-16T14:12:11;4.18;;;0.90;;
32427;SDS011;18882;50.952;4.366;2022-10-16T14:14:42;2.25;;;0.75;;
32427;SDS011;18882;50.952;4.366;2022-10-16T14:17:14;1.45;;;0.70;;
32427;SDS011;18882;50.952;4.366;2022-10-16T14:19:48;1.98;;;0.80;;
32427;SDS011;18882;50.952;4.366;2022-10-16T14:25:21;2.63;;;0.80;;
32427;SDS011;18882;50.952;4.366;2022-10-16T14:28:04;5.15;;;0.63;;
32427;SDS011;18882;50.952;4.366;2022-10-16T14:30:49;1.58;;;0.50;;
32427;SDS011;18882;50.952;4.366;2022-10-16T14:36:05;2.03;;;0.60;;
32427;SDS011;18882;50.952;4.366;2022-10-16T14:39:23;2.50;;;0.40;;
32427;SDS011;18882;50.952;4.366;2022-10-16T14:41:25;4.03;;;0.68;;
32427;SDS011;18882;50.952;4.366;2022-10-16T14:43:55;3.47;;;1.00;;
32427;SDS011;18882;50.952;4.366;2022-10-16T14:46:33;5.18;;;1.73;;
32427;SDS011;18882;50.952;4.366;2022-10-16T14:49:19;3.65;;;1.63;;
32427;SDS011;18882;50.952;4.366;2022-10-16T14:51:47;5.82;;;2.20;;
32427;SDS011;18882;50.952;4.366;2022-10-16T14:54:13;5.70;;;2.88;;
32427;SDS011;18882;50.952;4.366;2022-10-16T14:56:45;8.60;;;2.20;;
32427;SDS011;18882;50.952;4.366;2022-10-16T14:59:17;3.35;;;1.30;;
32427;SDS011;18882;50.952;4.366;2022-10-16T15:01:50;2.85;;;1.83;;
32427;SDS011;18882;50.952;4.366;2022-10-16T15:04:16;1.55;;;0.93;;
32427;SDS011;18882;50.952;4.366;2022-10-16T15:06:42;2.55;;;1.23;;
32427;SDS011;18882;50.952;4.366;2022-10-16T15:09:08;3.92;;;1.23;;
32427;SDS011;18882;50.952;4.366;2022-10-16T15:11:33;5.05;;;0.80;;
32427;SDS011;18882;50.952;4.366;2022-10-16T15:13:59;1.63;;;0.73;;
32427;SDS011;18882;50.952;4.366;2022-10-16T15:16:25;7.70;;;1.35;;
32427;SDS011;18882;50.952;4.366;2022-10-16T15:18:50;4.53;;;1.20;;
32427;SDS011;18882;50.952;4.366;2022-10-16T15:21:25;2.92;;;1.02;;
32427;SDS011;18882;50.952;4.366;2022-10-16T15:23:53;5.10;;;1.30;;
32427;SDS011;18882;50.952;4.366;2022-10-16T15:26:18;5.15;;;1.13;;
32427;SDS011;18882;50.952;4.366;2022-10-16T15:28:44;1.90;;;1.13;;
32427;SDS011;18882;50.952;4.366;2022-10-16T15:31:10;6.20;;;1.00;;
32427;SDS011;18882;50.952;4.366;2022-10-16T15:33:35;3.30;;;0.85;;
32427;SDS011;18882;50.952;4.366;2022-10-16T15:36:01;5.18;;;1.00;;
32427;SDS011;18882;50.952;4.366;2022-10-16T15:38:28;2.03;;;1.35;;
32427;SDS011;18882;50.952;4.366;2022-10-16T15:40:55;2.75;;;0.88;;
32427;SDS011;18882;50.952;4.366;2022-10-16T15:43:21;2.60;;;0.88;;
32427;SDS011;18882;50.952;4.366;2022-10-16T15:45:54;4.32;;;1.00;;
32427;SDS011;18882;50.952;4.366;2022-10-16T15:48:31;4.88;;;1.10;;
32427;SDS011;18882;50.952;4.366;2022-10-16T15:50:57;6.90;;;1.27;;
32427;SDS011;18882;50.952;4.366;2022-10-16T15:53:23;4.35;;;0.82;;
32427;SDS011;18882;50.952;4.366;2022-10-16T15:55:48;3.42;;;1.30;;
32427;SDS011;18882;50.952;4.366;2022-10-16T15:58:14;2.67;;;1.70;;
32427;SDS011;18882;50.952;4.366;2022-10-16T16:00:40;3.58;;;0.95;;
32427;SDS011;18882;50.952;4.366;2022-10-16T16:03:05;6.07;;;1.40;;
32427;SDS011;18882;50.952;4.366;2022-10-16T16:05:31;4.45;;;1.15;;
32427;SDS011;18882;50.952;4.366;2022-10-16T16:07:58;1.88;;;0.80;;
32427;SDS011;18882;50.952;4.366;2022-10-16T16:10:23;2.42;;;1.02;;
32427;SDS011;18882;50.952;4.366;2022-10-16T16:12:49;6.93;;;2.35;;
32427;SDS011;18882;50.952;4.366;2022-10-16T16:15:18;3.03;;;1.33;;
32427;SDS011;18882;50.952;4.366;2022-10-16T16:17:45;5.10;;;1.27;;
32427;SDS011;18882;50.952;4.366;2022-10-16T16:20:11;3.33;;;1.10;;
32427;SDS011;18882;50.952;4.366;2022-10-16T16:22:37;1.67;;;1.20;;
32427;SDS011;18882;50.952;4.366;2022-10-16T16:25:02;13.20;;;7.88;;
32427;SDS011;18882;50.952;4.366;2022-10-16T16:27:28;6.85;;;3.67;;
32427;SDS011;18882;50.952;4.366;2022-10-16T16:29:57;7.70;;;4.28;;
32427;SDS011;18882;50.952;4.366;2022-10-16T16:32:23;6.28;;;3.83;;
32427;SDS011;18882;50.952;4.366;2022-10-16T16:34:49;4.47;;;2.05;;
32427;SDS011;18882;50.952;4.366;2022-10-16T16:37:15;4.32;;;1.90;;
32427;SDS011;18882;50.952;4.366;2022-10-16T16:39:40;4.25;;;2.33;;
32427;SDS011;18882;50.952;4.366;2022-10-16T16:42:06;3.72;;;2.35;;
32427;SDS011;18882;50.952;4.366;2022-10-16T16:44:32;4.57;;;1.80;;
32427;SDS011;18882;50.952;4.366;2022-10-16T16:47:01;5.40;;;1.60;;
32427;SDS011;18882;50.952;4.366;2022-10-16T16:49:27;5.03;;;2.30;;
32427;SDS011;18882;50.952;4.366;2022-10-16T16:51:53;9.73;;;2.05;;
32427;SDS011;18882;50.952;4.366;2022-10-16T16:54:19;8.07;;;2.33;;
32427;SDS011;18882;50.952;4.366;2022-10-16T16:56:45;15.80;;;8.43;;
32427;SDS011;18882;50.952;4.366;2022-10-16T16:59:15;8.73;;;4.13;;
32427;SDS011;18882;50.952;4.366;2022-10-16T17:01:44;8.77;;;4.35;;
32427;SDS011;18882;50.952;4.366;2022-10-16T17:04:10;3.92;;;2.40;;
32427;SDS011;18882;50.952;4.366;2022-10-16T17:06:36;2.58;;;1.80;;